Valley Stream, New York
Current Conditions -  °F | °C
As of 12:51 AM on Wednesday 28 Jan 2015 (Local Time) from KJFK Reporting Station
Overcast Overcast  
Wind Chill:   Ceiling: 14000
Heat Index: 19°   Visibility: 10mi
Dew Point:   Wind: 14mph
Humidity: 62%   Direction: 340°NNW
Pressure: 29.87"   Gusts: NA
Location:  40.66°N, 73.71°W
Report Text: KJFK 280551Z 34012KT 10SM FEW035 OVC140 M07/M13 A2987 RMK AO2 SLP113 4/010 T10721133 11033 21072 51021 $
Loading
Personal Weather Stations






























Interactive Weather Map New forecast layout! Learn more

10-Day Weather Forecast

Advertisements
Track Severe Weather on mobile